Time;durP1;ratioP1;P1;durP2;ratioP2;P2;SDS_P1;SDS_P2;PMS_P1;PMS_P2;Temp;Humidity;BMP_temperature;BMP_pressure;BME280_temperature;BME280_humidity;BME280_pressure;Samples;Min_cycle;Max_cycle;Signal;HPM_P1;HPM_P2
2022/09/27 00:01:50;;;;;;;4.90;1.57;;;;;;;19.64;63.20;98598.75;5049959;28;20229;-66
2022/09/27 00:04:15;;;;;;;4.60;1.80;;;;;;;19.64;63.11;98598.75;5049579;28;20537;-65
2022/09/27 00:06:41;;;;;;;7.13;1.73;;;;;;;19.64;63.64;98589.34;5049771;28;20635;-65
2022/09/27 00:09:06;;;;;;;4.37;1.87;;;;;;;19.65;63.03;98586.06;5049741;28;20208;-65
2022/09/27 00:11:36;;;;;;;5.97;1.87;;;;;;;19.65;63.38;98588.09;5049408;28;20232;-65
2022/09/27 00:14:02;;;;;;;4.83;1.40;;;;;;;19.65;63.42;98593.81;5049485;28;20216;-65
2022/09/27 00:16:29;;;;;;;5.03;1.53;;;;;;;19.65;63.33;98576.63;5050658;28;20434;-65
2022/09/27 00:19:02;;;;;;;9.87;1.90;;;;;;;19.64;63.42;98580.75;5050608;28;20184;-65
2022/09/27 00:21:29;;;;;;;3.30;1.63;;;;;;;19.64;63.44;98583.59;5051080;28;21031;-65
2022/09/27 00:23:55;;;;;;;6.10;1.63;;;;;;;19.64;63.53;98584.44;5049496;28;20847;-65
2022/09/27 00:26:20;;;;;;;4.23;1.53;;;;;;;19.64;63.43;98581.56;5049816;28;20779;-65
2022/09/27 00:28:46;;;;;;;3.63;1.33;;;;;;;19.64;63.51;98584.44;5050823;28;20558;-65
2022/09/27 00:31:24;;;;;;;3.37;1.40;;;;;;;19.64;63.83;98586.47;5049909;28;20179;-65
2022/09/27 00:33:51;;;;;;;7.83;1.97;;;;;;;19.64;64.02;98581.56;5050186;28;20777;-65
2022/09/27 00:36:17;;;;;;;7.97;1.60;;;;;;;19.62;63.70;98578.31;5049922;28;20423;-65
2022/09/27 00:38:43;;;;;;;7.37;1.60;;;;;;;19.64;63.52;98578.72;5065560;28;20476;-65
2022/09/27 00:41:22;;;;;;;9.27;1.80;;;;;;;19.63;63.64;98571.38;5049793;28;20327;-65
2022/09/27 00:43:58;;;;;;;3.90;1.50;;;;;;;19.63;64.04;98576.28;5049087;28;20588;-65
2022/09/27 00:46:36;;;;;;;3.33;1.40;;;;;;;19.61;63.89;98578.75;5049525;28;20422;-65
2022/09/27 00:49:22;;;;;;;5.07;1.43;;;;;;;19.59;64.27;98581.22;5065224;28;20421;-65
2022/09/27 00:51:49;;;;;;;10.30;1.73;;;;;;;19.60;63.95;98579.97;5050184;28;20854;-65
2022/09/27 00:54:15;;;;;;;7.10;1.43;;;;;;;19.62;64.02;98584.03;5048854;28;20478;-65
2022/09/27 00:56:40;;;;;;;4.37;1.70;;;;;;;19.62;63.90;98586.91;5049178;28;20411;-66
2022/09/27 00:59:10;;;;;;;4.63;2.20;;;;;;;19.63;63.71;98597.13;5050473;28;20414;-66
2022/09/27 01:01:36;;;;;;;3.77;1.67;;;;;;;19.62;63.72;98603.28;5029220;28;20184;-66
2022/09/27 01:04:11;;;;;;;3.60;1.50;;;;;;;19.63;63.93;98624.94;5039869;28;20418;-66
2022/09/27 01:06:37;;;;;;;5.33;1.30;;;;;;;19.62;63.76;98624.13;5049497;28;20642;-65
2022/09/27 01:09:07;;;;;;;6.37;1.40;;;;;;;19.62;64.24;98629.84;5048240;28;20464;-66
2022/09/27 01:12:01;;;;;;;3.53;1.70;;;;;;;19.62;63.96;98634.78;5048317;28;20223;-66
2022/09/27 01:14:35;;;;;;;3.97;1.50;;;;;;;19.61;63.72;98642.53;5048375;28;20482;-66
2022/09/27 01:17:28;;;;;;;3.17;1.30;;;;;;;19.62;63.96;98632.69;5049489;28;20416;-66
2022/09/27 01:20:23;;;;;;;4.30;1.47;;;;;;;19.63;63.73;98624.94;5031775;28;20425;-66
2022/09/27 01:23:23;;;;;;;4.00;1.40;;;;;;;19.60;64.08;98629.47;5048017;28;20399;-66
2022/09/27 01:25:51;;;;;;;5.23;1.47;;;;;;;19.60;63.95;98634.38;5041834;28;20488;-66
2022/09/27 01:28:32;;;;;;;5.43;1.43;;;;;;;19.58;64.28;98637.69;5049670;28;20920;-66
2022/09/27 01:31:22;;;;;;;2.77;1.40;;;;;;;19.59;64.06;98645.03;5033260;28;20417;-66
2022/09/27 01:34:18;;;;;;;5.50;1.30;;;;;;;19.59;64.15;98645.03;5034240;28;20461;-66
2022/09/27 01:36:57;;;;;;;5.67;1.70;;;;;;;19.61;63.97;98639.66;5045998;28;20834;-66
2022/09/27 01:39:31;;;;;;;4.50;1.20;;;;;;;19.58;64.07;98643.41;5049318;28;20843;-66
2022/09/27 01:42:11;;;;;;;3.73;1.57;;;;;;;19.63;64.63;98647.84;5049597;28;20480;-66
2022/09/27 01:44:49;;;;;;;6.17;1.63;;;;;;;19.60;64.09;98648.69;5031576;28;20771;-66
2022/09/27 01:47:22;;;;;;;2.90;1.23;;;;;;;19.59;64.18;98652.78;5048959;28;20450;-66
2022/09/27 01:50:10;;;;;;;6.70;1.53;;;;;;;19.59;64.25;98649.94;5031580;28;20509;-66
2022/09/27 01:52:45;;;;;;;2.90;1.30;;;;;;;19.58;64.23;98660.59;5031718;28;20961;-66
2022/09/27 01:55:11;;;;;;;5.17;1.47;;;;;;;19.59;64.61;98667.09;5031747;28;20515;-66
2022/09/27 01:57:38;;;;;;;3.03;1.30;;;;;;;19.56;64.42;98663.03;5031218;28;20411;-66
2022/09/27 02:00:09;;;;;;;2.70;1.37;;;;;;;19.59;64.00;98665.06;5048361;28;20706;-66
2022/09/27 02:02:40;;;;;;;3.20;1.30;;;;;;;19.58;64.20;98668.34;5049037;28;20805;-66
2022/09/27 02:05:06;;;;;;;7.97;1.60;;;;;;;19.58;64.25;98669.19;5027871;28;20407;-66
2022/09/27 02:07:40;;;;;;;4.83;1.47;;;;;;;19.60;64.39;98663.00;4994225;28;20427;-66
2022/09/27 02:10:15;;;;;;;2.90;1.30;;;;;;;19.62;63.93;98669.91;5028625;28;20200;-66
2022/09/27 02:13:05;;;;;;;3.13;1.23;;;;;;;19.58;64.68;98671.22;5029581;28;20431;-66
2022/09/27 02:15:35;;;;;;;4.83;1.73;;;;;;;19.61;63.83;98667.50;5045660;28;20450;-66
2022/09/27 02:18:01;;;;;;;2.53;1.47;;;;;;;19.57;64.17;98661.81;5047211;28;20867;-66
2022/09/27 02:20:36;;;;;;;5.53;1.70;;;;;;;19.59;64.44;98659.34;5047842;28;20945;-66
2022/09/27 02:23:21;;;;;;;3.20;1.20;;;;;;;19.57;64.16;98667.53;5027395;28;20431;-66
2022/09/27 02:25:56;;;;;;;5.00;1.77;;;;;;;19.57;64.23;98667.53;5011335;28;20910;-66
2022/09/27 02:28:45;;;;;;;3.70;1.20;;;;;;;19.56;64.31;98668.78;5034469;28;20472;-66
2022/09/27 02:31:10;;;;;;;1.87;1.10;;;;;;;19.57;64.37;98678.19;5048304;28;20448;-66
2022/09/27 02:33:49;;;;;;;2.73;1.33;;;;;;;19.55;64.52;98680.66;5030910;28;20886;-66
2022/09/27 02:36:16;;;;;;;3.87;1.37;;;;;;;19.56;64.65;98677.34;5031014;28;20826;-66
2022/09/27 02:38:42;;;;;;;3.10;1.40;;;;;;;19.55;64.75;98681.47;5048567;28;20418;-66
2022/09/27 02:41:14;;;;;;;3.40;1.20;;;;;;;19.58;64.06;98686.34;5031650;28;20414;-66
2022/09/27 02:43:40;;;;;;;8.80;1.50;;;;;;;19.58;63.99;98691.25;5048145;28;20808;-66
2022/09/27 02:46:08;;;;;;;5.23;1.13;;;;;;;19.57;64.27;98696.16;5047114;28;20425;-65
2022/09/27 02:48:49;;;;;;;3.73;1.50;;;;;;;19.59;64.64;98695.72;5048686;28;20175;-65
2022/09/27 02:51:42;;;;;;;3.13;1.20;;;;;;;19.58;64.29;98697.81;5047441;28;20422;-66
2022/09/27 02:54:31;;;;;;;2.73;1.30;;;;;;;19.56;65.13;98696.59;5034866;28;20815;-66
2022/09/27 02:57:01;;;;;;;3.90;1.30;;;;;;;19.56;65.07;98703.13;5049095;28;20487;-66
2022/09/27 02:59:51;;;;;;;4.00;1.30;;;;;;;19.55;64.42;98707.22;5047925;28;20423;-66
2022/09/27 03:02:31;;;;;;;4.13;1.40;;;;;;;19.56;64.46;98702.31;5048019;28;20399;-66
2022/09/27 03:05:12;;;;;;;3.00;1.63;;;;;;;19.57;64.06;98706.81;5048599;28;20506;-66
2022/09/27 03:07:38;;;;;;;4.30;1.60;;;;;;;19.56;64.17;98711.72;5031247;28;20844;-65
2022/09/27 03:10:04;;;;;;;3.70;1.40;;;;;;;19.56;64.30;98700.25;5030624;28;20535;-65
2022/09/27 03:12:30;;;;;;;3.47;1.23;;;;;;;19.53;65.28;98712.59;5048319;28;20466;-65
2022/09/27 03:14:56;;;;;;;2.90;1.50;;;;;;;19.53;64.39;98708.91;5046916;28;20488;-65
2022/09/27 03:17:22;;;;;;;3.70;1.20;;;;;;;19.54;64.77;98705.63;5047422;28;20703;-65
2022/09/27 03:19:47;;;;;;;2.53;1.07;;;;;;;19.54;64.46;98713.38;5051798;28;20490;-66
2022/09/27 03:22:13;;;;;;;2.43;1.10;;;;;;;19.58;64.19;98708.44;5051350;28;20247;-65
2022/09/27 03:24:38;;;;;;;2.60;1.40;;;;;;;19.54;64.64;98716.25;5052131;28;20571;-66
2022/09/27 03:27:04;;;;;;;2.93;1.40;;;;;;;19.55;64.32;98715.81;5051537;28;20183;-66
2022/09/27 03:29:30;;;;;;;2.60;0.93;;;;;;;19.54;64.77;98719.09;5033986;28;20259;-66
2022/09/27 03:31:56;;;;;;;4.40;1.50;;;;;;;19.54;64.60;98719.94;5050634;28;20164;-66
2022/09/27 03:34:21;;;;;;;5.00;1.33;;;;;;;19.51;64.44;98712.19;5051443;28;20461;-66
2022/09/27 03:36:47;;;;;;;2.93;1.27;;;;;;;19.57;64.51;98716.19;5050169;28;20176;-66
2022/09/27 03:39:12;;;;;;;3.10;1.20;;;;;;;19.57;63.97;98719.06;5051363;28;20187;-66
2022/09/27 03:41:38;;;;;;;2.23;1.00;;;;;;;19.55;64.16;98727.28;5051165;28;20198;-66
2022/09/27 03:44:03;;;;;;;3.13;1.10;;;;;;;19.54;64.34;98725.66;5050075;28;20176;-66
2022/09/27 03:46:28;;;;;;;3.00;1.10;;;;;;;19.56;64.27;98726.03;5048431;28;20172;-66
2022/09/27 03:48:54;;;;;;;2.57;1.10;;;;;;;19.56;64.11;98722.38;5048144;28;20168;-66
2022/09/27 03:51:19;;;;;;;2.67;1.30;;;;;;;19.56;64.58;98720.28;5047176;28;20198;-66
2022/09/27 03:53:45;;;;;;;2.80;1.13;;;;;;;19.55;64.30;98726.44;5047846;28;20195;-66
2022/09/27 03:56:11;;;;;;;3.33;1.27;;;;;;;19.56;64.24;98726.03;5048650;28;20175;-66
2022/09/27 03:58:36;;;;;;;2.77;1.17;;;;;;;19.56;64.54;98733.81;5049400;28;20573;-66
2022/09/27 04:01:01;;;;;;;1.90;1.07;;;;;;;19.55;64.42;98727.28;5049517;28;20702;-66
2022/09/27 04:03:27;;;;;;;2.67;1.13;;;;;;;19.55;64.47;98740.75;5051077;28;20171;-66
2022/09/27 04:05:52;;;;;;;4.23;1.40;;;;;;;19.57;64.48;98741.97;5050592;28;20171;-66
2022/09/27 04:08:19;;;;;;;3.40;1.20;;;;;;;19.57;64.08;98747.69;5049667;28;20160;-66
2022/09/27 04:10:45;;;;;;;2.27;1.10;;;;;;;19.56;64.35;98757.50;5032690;28;20227;-66
2022/09/27 04:13:10;;;;;;;2.67;1.23;;;;;;;19.57;64.27;98750.53;5051757;28;20894;-66
2022/09/27 04:15:38;;;;;;;3.07;1.40;;;;;;;19.56;64.04;98748.94;5050542;28;20635;-66
2022/09/27 04:18:04;;;;;;;2.07;1.00;;;;;;;19.57;64.18;98756.25;5050897;28;20156;-66
2022/09/27 04:20:29;;;;;;;3.73;1.00;;;;;;;19.57;64.14;98756.25;5048616;28;20414;-66
2022/09/27 04:22:55;;;;;;;2.53;1.13;;;;;;;19.56;64.58;98757.50;5047668;28;20422;-66
2022/09/27 04:25:20;;;;;;;1.77;1.00;;;;;;;19.55;64.15;98755.91;5049286;28;20638;-66
2022/09/27 04:27:46;;;;;;;3.00;1.07;;;;;;;19.54;64.56;98760.00;5049163;28;20172;-66
2022/09/27 04:30:12;;;;;;;2.90;1.40;;;;;;;19.56;64.93;98762.44;5031262;28;20187;-66
2022/09/27 04:32:43;;;;;;;2.20;1.20;;;;;;;19.55;64.21;98761.63;5048994;28;20176;-66
2022/09/27 04:37:53;;;;;;;2.40;1.10;;;;;;;19.56;64.22;98766.09;5049073;28;20461;-67
2022/09/27 04:40:20;;;;;;;3.50;1.00;;;;;;;19.57;64.16;98769.78;5049175;28;20410;-66
2022/09/27 04:42:46;;;;;;;1.90;1.00;;;;;;;19.55;63.93;98767.34;5049391;28;20179;-66
2022/09/27 04:45:12;;;;;;;5.30;1.77;;;;;;;19.57;64.12;98784.91;5050327;28;20912;-66
2022/09/27 04:47:44;;;;;;;1.97;0.87;;;;;;;19.57;63.99;98781.25;5048923;28;20179;-66
2022/09/27 04:50:10;;;;;;;2.20;1.23;;;;;;;19.55;64.51;98790.25;5048409;28;20221;-66
2022/09/27 04:52:36;;;;;;;4.60;1.30;;;;;;;19.58;64.01;98794.31;5032782;28;20422;-66
2022/09/27 04:55:02;;;;;;;2.90;0.93;;;;;;;19.59;63.96;98798.78;5047164;28;20830;-67
2022/09/27 04:57:27;;;;;;;2.63;1.03;;;;;;;19.59;63.87;98793.06;5048265;28;20532;-66
2022/09/27 04:59:52;;;;;;;2.13;0.90;;;;;;;19.58;64.11;98800.84;5050104;28;20565;-66
2022/09/27 05:02:18;;;;;;;2.30;0.97;;;;;;;19.55;64.00;98795.97;5050127;28;20476;-66
2022/09/27 05:04:43;;;;;;;2.13;0.80;;;;;;;19.56;64.22;98803.31;5048296;28;20175;-66
2022/09/27 05:07:09;;;;;;;2.60;0.93;;;;;;;19.55;64.55;98800.88;5048738;28;20175;-66
2022/09/27 05:09:34;;;;;;;2.20;1.17;;;;;;;19.55;64.14;98812.31;5031636;28;20203;-67
2022/09/27 05:12:00;;;;;;;2.50;1.10;;;;;;;19.56;64.44;98820.50;5049852;28;20219;-67
2022/09/27 05:14:25;;;;;;;2.00;1.07;;;;;;;19.56;64.44;98814.75;5049776;28;20216;-67
2022/09/27 05:16:52;;;;;;;2.40;1.27;;;;;;;19.55;64.14;98818.88;5049611;28;20183;-67
2022/09/27 05:19:17;;;;;;;2.30;1.30;;;;;;;19.56;63.73;98811.91;5048358;28;20175;-67
2022/09/27 05:21:43;;;;;;;2.43;0.87;;;;;;;19.52;64.02;98813.97;5048426;28;20424;-67
2022/09/27 05:24:08;;;;;;;2.80;1.27;;;;;;;19.55;63.99;98829.50;5049847;28;20179;-67
2022/09/27 05:26:34;;;;;;;2.50;1.07;;;;;;;19.55;64.67;98832.34;5048011;28;20174;-67
2022/09/27 05:28:59;;;;;;;1.83;0.80;;;;;;;19.54;64.17;98834.44;5048350;28;20221;-67
2022/09/27 05:31:25;;;;;;;1.80;0.80;;;;;;;19.56;63.97;98831.16;5050082;28;20382;-67
2022/09/27 05:33:51;;;;;;;2.80;0.97;;;;;;;19.53;64.08;98835.66;5048180;28;20659;-67
2022/09/27 05:36:16;;;;;;;3.63;1.17;;;;;;;19.56;64.01;98848.31;5048960;28;20647;-67
2022/09/27 05:38:42;;;;;;;2.10;0.80;;;;;;;19.54;64.07;98851.59;5047362;28;20411;-67
2022/09/27 05:41:08;;;;;;;1.80;0.90;;;;;;;19.55;64.14;98861.81;5048601;28;20182;-67
2022/09/27 05:43:35;;;;;;;3.00;1.30;;;;;;;19.56;64.01;98860.56;5049322;28;20643;-67
2022/09/27 05:46:00;;;;;;;3.83;1.27;;;;;;;19.55;64.09;98858.94;5049166;28;20418;-67
2022/09/27 05:48:29;;;;;;;2.60;1.57;;;;;;;19.57;64.50;98849.94;5047101;28;20423;-67
2022/09/27 05:50:54;;;;;;;3.10;1.00;;;;;;;19.56;64.44;98854.84;5047976;28;20190;-67
2022/09/27 05:53:20;;;;;;;2.90;1.07;;;;;;;19.57;64.13;98859.31;5047706;28;20512;-67
2022/09/27 05:55:45;;;;;;;2.20;0.90;;;;;;;19.56;64.03;98869.16;5048924;28;20159;-67
2022/09/27 05:58:14;;;;;;;2.50;1.10;;;;;;;19.55;64.01;98869.56;5049443;28;20519;-67
2022/09/27 06:00:40;;;;;;;2.67;1.20;;;;;;;19.54;64.12;98871.66;5047946;28;20578;-67
2022/09/27 06:03:06;;;;;;;1.63;0.90;;;;;;;19.56;64.17;98876.94;5046966;28;20409;-67
2022/09/27 06:05:34;;;;;;;2.43;1.00;;;;;;;19.57;64.14;98881.44;5047924;28;20172;-67
2022/09/27 06:08:03;;;;;;;2.67;1.10;;;;;;;19.55;64.32;98873.25;5031509;28;20508;-67
2022/09/27 06:10:28;;;;;;;1.90;0.90;;;;;;;19.56;64.17;98874.88;5047518;28;20560;-67
2022/09/27 06:13:00;;;;;;;2.53;1.10;;;;;;;19.58;64.06;98878.16;5031317;28;20866;-67
2022/09/27 06:15:25;;;;;;;2.00;0.80;;;;;;;19.58;64.16;98883.88;5047113;28;20718;-67
2022/09/27 06:17:50;;;;;;;2.20;1.00;;;;;;;19.56;64.14;98889.19;5049131;28;20468;-67
2022/09/27 06:20:17;;;;;;;2.13;1.07;;;;;;;19.55;63.91;98887.56;5046758;28;20179;-67
2022/09/27 06:22:45;;;;;;;3.10;1.30;;;;;;;19.57;63.97;98890.81;5046366;28;20198;-67
2022/09/27 06:25:10;;;;;;;1.83;1.00;;;;;;;19.54;64.18;98883.09;5048702;28;20401;-67
2022/09/27 06:27:36;;;;;;;2.27;1.00;;;;;;;19.55;64.24;98892.47;5048404;28;20801;-67
2022/09/27 06:30:01;;;;;;;2.53;1.07;;;;;;;19.59;63.92;98899.00;5047677;28;20612;-67
2022/09/27 06:32:27;;;;;;;1.70;0.90;;;;;;;19.55;64.16;98901.88;5049389;28;20179;-67
2022/09/27 06:34:52;;;;;;;1.93;0.73;;;;;;;19.52;64.09;98902.72;5047996;28;20212;-67
2022/09/27 06:37:17;;;;;;;2.57;1.07;;;;;;;19.56;63.97;98897.78;5049540;28;20187;-67
2022/09/27 06:39:43;;;;;;;2.73;1.33;;;;;;;19.57;63.99;98913.72;5048122;28;20591;-67
2022/09/27 06:42:09;;;;;;;2.37;0.90;;;;;;;19.54;63.96;98908.84;5048077;28;20243;-67
2022/09/27 06:44:35;;;;;;;2.17;1.00;;;;;;;19.55;63.95;98921.94;5048779;28;20175;-67
2022/09/27 06:47:00;;;;;;;1.70;0.80;;;;;;;19.58;63.82;98921.09;5046327;28;20541;-67
2022/09/27 06:49:26;;;;;;;2.07;0.90;;;;;;;19.55;63.89;98932.56;5046342;28;20175;-66
2022/09/27 06:51:52;;;;;;;6.00;3.00;;;;;;;19.50;63.26;98922.38;5046611;28;20647;-67
2022/09/27 06:54:18;;;;;;;6.40;2.60;;;;;;;19.57;61.89;98922.31;5051466;28;20202;-67
2022/09/27 06:56:46;;;;;;;9.00;3.43;;;;;;;19.76;63.55;98920.94;5049707;28;20429;-66
2022/09/27 07:01:56;;;;;;;10.17;3.27;;;;;;;19.86;61.75;98923.69;5048957;28;20417;-67
2022/09/27 07:04:23;;;;;;;6.23;2.90;;;;;;;19.78;61.11;98933.59;5048035;28;20454;-68
2022/09/27 07:06:49;;;;;;;8.50;2.80;;;;;;;19.74;61.10;98935.69;5047283;28;20494;-67
2022/09/27 07:09:15;;;;;;;6.30;2.20;;;;;;;19.73;61.29;98941.81;5050168;28;20223;-67
2022/09/27 07:11:42;;;;;;;5.10;2.30;;;;;;;19.71;60.58;98944.31;5050555;28;20239;-67
2022/09/27 07:14:09;;;;;;;5.33;2.37;;;;;;;19.72;60.64;98935.28;5051690;28;20501;-67
2022/09/27 07:16:34;;;;;;;4.40;2.00;;;;;;;19.70;60.33;98943.47;5050970;28;20430;-67
2022/09/27 07:19:00;;;;;;;5.30;2.20;;;;;;;19.75;60.87;98945.06;5053182;28;20936;-68
2022/09/27 07:21:25;;;;;;;4.60;2.37;;;;;;;19.76;60.68;98950.38;5051370;28;20939;-68
2022/09/27 07:23:51;;;;;;;5.60;2.03;;;;;;;19.74;60.84;98954.91;5051142;28;20569;-68
2022/09/27 07:26:16;;;;;;;3.87;2.03;;;;;;;19.73;60.82;98954.09;5049672;28;20160;-67
2022/09/27 07:28:43;;;;;;;3.80;2.00;;;;;;;19.77;60.35;98957.72;5032681;28;20381;-67
2022/09/27 07:31:08;;;;;;;4.53;1.90;;;;;;;20.09;60.99;98955.44;5049668;28;20259;-67
2022/09/27 07:33:34;;;;;;;5.10;2.43;;;;;;;20.31;60.88;98959.72;5048584;28;20800;-67
2022/09/27 07:36:00;;;;;;;4.93;2.50;;;;;;;20.19;60.87;98974.59;5049447;28;20176;-67
2022/09/27 07:38:25;;;;;;;5.30;2.10;;;;;;;20.12;60.53;98965.25;5049945;28;20214;-67
2022/09/27 07:40:51;;;;;;;4.40;2.00;;;;;;;20.01;60.83;98965.28;5049746;28;20167;-68
2022/09/27 07:43:16;;;;;;;5.33;2.00;;;;;;;19.89;61.21;98970.72;5049890;28;20250;-67
2022/09/27 07:45:42;;;;;;;5.80;2.43;;;;;;;19.86;60.92;98969.53;5050324;28;20183;-67
2022/09/27 07:48:07;;;;;;;6.10;2.20;;;;;;;19.87;61.14;98965.41;5050801;28;20195;-67
2022/09/27 07:50:33;;;;;;;7.23;2.33;;;;;;;19.92;61.46;98964.16;5048428;28;20631;-67
2022/09/27 07:52:59;;;;;;;6.70;2.13;;;;;;;19.84;60.69;98966.28;5050224;28;20176;-68
2022/09/27 07:55:24;;;;;;;4.07;1.90;;;;;;;19.84;60.95;98969.16;5050458;28;20465;-68
2022/09/27 07:57:50;;;;;;;5.67;2.17;;;;;;;19.82;60.59;98974.47;5051307;28;20176;-68
2022/09/27 08:00:17;;;;;;;3.80;2.00;;;;;;;19.87;60.03;98976.88;5051432;28;20614;-68
2022/09/27 08:02:42;;;;;;;6.53;1.70;;;;;;;19.85;59.74;98973.63;5051503;28;20242;-68
2022/09/27 08:05:08;;;;;;;5.40;1.93;;;;;;;19.87;59.84;98988.31;5049828;28;20482;-66
2022/09/27 08:07:33;;;;;;;7.20;2.20;;;;;;;19.75;60.50;98993.75;5050101;28;20590;-67
2022/09/27 08:09:59;;;;;;;7.23;2.47;;;;;;;19.74;60.50;98992.94;5049112;28;20261;-67
2022/09/27 08:12:24;;;;;;;8.13;2.37;;;;;;;19.75;61.10;98993.75;5049106;28;20223;-67
2022/09/27 08:14:51;;;;;;;14.40;2.50;;;;;;;19.76;61.06;98983.94;5029153;28;20199;-67
2022/09/27 08:17:16;;;;;;;9.13;1.90;;;;;;;19.77;61.52;98991.28;5029713;28;20659;-67
2022/09/27 08:19:43;;;;;;;11.50;1.93;;;;;;;19.76;61.09;98990.47;5029879;28;20415;-67
2022/09/27 08:22:09;;;;;;;7.60;2.07;;;;;;;19.75;61.19;98991.72;5031279;28;20192;-67
2022/09/27 08:24:34;;;;;;;3.80;1.80;;;;;;;19.76;61.51;98992.53;5030341;28;20809;-67
2022/09/27 08:27:01;;;;;;;5.30;1.90;;;;;;;19.76;61.40;98992.53;5050526;28;20206;-67
2022/09/27 08:29:26;;;;;;;3.83;1.73;;;;;;;19.73;61.71;98985.59;5034754;28;20152;-67
2022/09/27 08:31:52;;;;;;;9.87;1.77;;;;;;;19.73;61.63;98982.75;5051004;28;20831;-67
2022/09/27 08:34:19;;;;;;;6.93;1.60;;;;;;;19.72;62.54;98983.16;5052319;28;20200;-67
2022/09/27 08:36:44;;;;;;;6.27;1.90;;;;;;;19.71;62.05;98985.19;5034069;28;20489;-67
2022/09/27 08:39:09;;;;;;;5.03;1.73;;;;;;;19.74;61.87;98974.94;5051938;28;20418;-67
2022/09/27 08:41:39;;;;;;;9.00;2.00;;;;;;;19.72;62.32;98981.09;5051160;28;20175;-67
2022/09/27 08:44:30;;;;;;;6.53;1.83;;;;;;;19.72;62.25;98983.94;5037201;28;20561;-67
2022/09/27 08:47:15;;;;;;;13.30;2.30;;;;;;;19.72;62.11;98978.22;5049966;28;20433;-67
2022/09/27 08:50:07;;;;;;;5.30;1.80;;;;;;;19.67;62.27;98972.94;5049421;28;20405;-67
2022/09/27 08:52:36;;;;;;;9.20;1.90;;;;;;;19.70;62.30;98968.44;5045455;28;21339;-67
2022/09/27 08:55:04;;;;;;;5.00;2.13;;;;;;;19.69;62.48;98975.41;5047855;28;20494;-67
2022/09/27 08:57:30;;;;;;;4.33;1.40;;;;;;;19.68;62.37;98966.00;5047490;28;20859;-67
2022/09/27 08:59:58;;;;;;;5.77;1.80;;;;;;;19.68;62.64;98971.72;5047714;28;20420;-67
2022/09/27 09:02:25;;;;;;;6.57;1.87;;;;;;;19.70;62.63;98969.25;5050683;28;20197;-68
2022/09/27 09:05:02;;;;;;;2.63;1.33;;;;;;;19.69;62.76;98967.63;5048876;28;20506;-67
2022/09/27 09:07:58;;;;;;;7.40;1.80;;;;;;;19.70;62.71;98968.44;5050073;28;20501;-67
2022/09/27 09:13:52;;;;;;;5.67;1.97;;;;;;;19.66;62.91;98959.88;5050302;28;20460;-67
2022/09/27 09:16:42;;;;;;;6.63;1.73;;;;;;;19.66;62.90;98964.81;5028107;28;20502;-67
2022/09/27 09:19:08;;;;;;;6.63;1.60;;;;;;;19.68;62.87;98953.72;5030780;28;20482;-67
2022/09/27 09:21:35;;;;;;;5.17;1.60;;;;;;;19.65;63.11;98957.41;5030312;28;20902;-67
2022/09/27 09:24:39;;;;;;;4.60;1.73;;;;;;;19.65;63.30;98951.69;5029070;28;20251;-67
2022/09/27 09:27:29;;;;;;;6.50;1.30;;;;;;;19.66;63.06;98951.28;5029533;28;20423;-67
2022/09/27 09:30:06;;;;;;;3.70;1.40;;;;;;;19.65;63.17;98955.38;5029144;28;20441;-67
2022/09/27 09:32:38;;;;;;;3.60;1.70;;;;;;;19.67;63.37;98947.19;5013649;28;20450;-67
2022/09/27 09:35:06;;;;;;;5.10;1.80;;;;;;;19.66;63.25;98939.03;5030228;28;20458;-67
2022/09/27 09:37:40;;;;;;;7.77;2.00;;;;;;;19.64;63.19;98938.63;5011729;28;20427;-67
2022/09/27 09:40:31;;;;;;;3.83;1.40;;;;;;;19.64;63.12;98945.19;5012795;28;20485;-67
2022/09/27 09:43:29;;;;;;;9.63;1.60;;;;;;;19.65;63.69;98935.34;5028732;28;20757;-67
2022/09/27 09:46:13;;;;;;;5.63;1.57;;;;;;;19.66;63.41;98934.09;5028478;28;20443;-68
2022/09/27 09:49:12;;;;;;;4.00;1.57;;;;;;;19.66;63.19;98939.81;5013378;28;20442;-67
2022/09/27 09:51:41;;;;;;;4.83;1.57;;;;;;;19.65;62.83;98932.47;5008934;28;20961;-68
2022/09/27 09:54:15;;;;;;;6.50;1.77;;;;;;;19.66;63.17;98922.66;5028242;28;20862;-68
2022/09/27 09:56:58;;;;;;;4.60;1.70;;;;;;;19.65;63.25;98915.31;5028100;28;20407;-68
2022/09/27 09:59:26;;;;;;;4.20;1.63;;;;;;;19.67;63.24;98921.41;5029531;28;20403;-68
2022/09/27 10:01:52;;;;;;;5.20;1.50;;;;;;;19.65;63.07;98918.16;5026319;28;20451;-67
2022/09/27 10:04:26;;;;;;;4.90;1.57;;;;;;;19.65;63.38;98926.75;5042776;28;20429;-67
2022/09/27 10:06:51;;;;;;;3.67;1.67;;;;;;;19.65;62.93;98929.63;5031916;28;20182;-68
2022/09/27 10:09:21;;;;;;;5.53;1.70;;;;;;;19.66;63.47;98907.53;5048323;28;20433;-68
2022/09/27 10:11:47;;;;;;;4.80;1.60;;;;;;;19.64;63.52;98912.84;5048418;28;20224;-68
2022/09/27 10:14:14;;;;;;;5.43;1.50;;;;;;;19.65;63.50;98921.03;5047936;28;20489;-68
2022/09/27 10:16:44;;;;;;;3.23;1.20;;;;;;;19.66;63.41;98919.78;5048066;28;20168;-68
2022/09/27 10:19:09;;;;;;;3.60;1.20;;;;;;;19.63;63.90;98919.81;5032549;28;20418;-67
2022/09/27 10:21:37;;;;;;;2.90;1.23;;;;;;;19.64;63.48;98910.81;5049377;28;20433;-68
2022/09/27 10:24:06;;;;;;;2.77;1.40;;;;;;;19.63;63.56;98908.38;5047669;28;20192;-68
2022/09/27 10:26:31;;;;;;;4.03;1.40;;;;;;;19.64;63.40;98904.25;5049224;28;20880;-68
2022/09/27 10:28:57;;;;;;;5.53;1.80;;;;;;;19.65;63.68;98900.16;5052446;28;20489;-68
2022/09/27 10:31:22;;;;;;;3.80;1.30;;;;;;;19.63;63.74;98917.78;5051797;28;20176;-68
2022/09/27 10:34:00;;;;;;;4.20;1.20;;;;;;;19.64;63.71;98913.69;5051362;28;20202;-68
2022/09/27 10:36:30;;;;;;;4.10;1.47;;;;;;;19.64;63.48;98915.72;5051844;28;20157;-68
2022/09/27 10:38:57;;;;;;;3.77;1.37;;;;;;;19.63;63.58;98914.91;5068983;28;20469;-67
2022/09/27 10:41:31;;;;;;;5.57;1.50;;;;;;;19.64;63.78;98913.69;5035642;28;20433;-68
2022/09/27 10:43:59;;;;;;;3.60;1.50;;;;;;;19.68;63.43;98914.47;5053175;28;20430;-68
2022/09/27 10:46:24;;;;;;;3.90;1.27;;;;;;;19.66;63.62;98921.84;5050082;28;21087;-68
2022/09/27 10:49:07;;;;;;;3.17;1.40;;;;;;;19.66;63.67;98916.13;5052914;28;20493;-68
2022/09/27 10:51:32;;;;;;;3.50;1.23;;;;;;;19.63;63.60;98923.50;5035295;28;20702;-68
2022/09/27 10:53:59;;;;;;;5.63;1.47;;;;;;;19.65;63.75;98921.03;5051424;28;20465;-68
2022/09/27 10:56:27;;;;;;;2.83;1.50;;;;;;;19.64;63.88;98913.69;5051541;28;20175;-67
2022/09/27 10:58:53;;;;;;;4.47;1.43;;;;;;;19.62;63.76;98921.06;5051249;28;20415;-67
2022/09/27 11:01:19;;;;;;;2.87;1.30;;;;;;;19.62;63.66;98919.00;5050967;28;20886;-67
2022/09/27 11:03:52;;;;;;;2.90;1.47;;;;;;;19.62;63.58;98926.78;5051281;28;20418;-68
2022/09/27 11:06:21;;;;;;;5.27;1.50;;;;;;;19.65;63.72;98923.88;5034416;28;20167;-67
2022/09/27 11:08:47;;;;;;;2.33;1.10;;;;;;;19.67;63.55;98923.47;5052729;28;20482;-68
2022/09/27 11:11:13;;;;;;;3.40;1.57;;;;;;;19.67;63.51;98932.84;5050784;28;20474;-67
2022/09/27 11:13:38;;;;;;;3.23;1.47;;;;;;;19.65;63.73;98937.38;5052466;28;20441;-67
2022/09/27 11:16:22;;;;;;;9.57;1.60;;;;;;;19.66;63.29;98939.03;5052240;28;20168;-67
2022/09/27 11:19:24;;;;;;;2.97;1.30;;;;;;;19.62;64.11;98930.44;5051156;28;20187;-67
2022/09/27 11:21:56;;;;;;;3.60;1.43;;;;;;;19.63;63.81;98923.50;5051085;28;20421;-68
2022/09/27 11:24:33;;;;;;;2.93;1.33;;;;;;;19.64;63.72;98930.03;5052252;28;20399;-68
2022/09/27 11:27:09;;;;;;;3.53;1.30;;;;;;;19.67;63.96;98917.75;5052362;28;20414;-67
2022/09/27 11:29:52;;;;;;;4.03;1.50;;;;;;;19.63;63.82;98917.78;5050997;28;20513;-68
2022/09/27 11:32:35;;;;;;;3.83;1.30;;;;;;;19.66;63.51;98904.69;5052062;28;20493;-68
2022/09/27 11:35:09;;;;;;;3.73;1.00;;;;;;;19.67;63.45;98898.50;5052220;28;20453;-68
2022/09/27 11:37:40;;;;;;;3.23;1.20;;;;;;;19.63;63.69;98903.47;5034673;28;20424;-68
2022/09/27 11:40:18;;;;;;;2.80;1.30;;;;;;;19.67;63.59;98898.50;5051121;28;20898;-68
2022/09/27 11:42:59;;;;;;;3.70;1.47;;;;;;;19.66;63.82;98898.94;5050519;28;20464;-67
2022/09/27 11:45:39;;;;;;;3.27;1.23;;;;;;;19.65;63.68;98888.72;5051478;28;20422;-68
2022/09/27 11:48:38;;;;;;;2.70;1.43;;;;;;;19.66;63.71;98882.56;5050731;28;20405;-67
2022/09/27 11:51:08;;;;;;;5.13;1.70;;;;;;;19.65;63.57;98878.06;5049979;28;20726;-67
2022/09/27 11:53:57;;;;;;;4.50;1.77;;;;;;;19.66;63.58;98876.84;5017857;28;20909;-68
2022/09/27 11:56:39;;;;;;;3.63;1.60;;;;;;;19.64;64.12;98873.59;5047813;28;20505;-67
2022/09/27 11:59:09;;;;;;;3.03;1.20;;;;;;;19.62;63.65;98863.81;5034679;28;20909;-68